Terminal Aerodrome Forecast
Issued by NWS

Home | Current Version | Previous Version | Text Only | Print | Product List | Glossary On
Versions: 1 2 3 4 5 6 7 8 9 10 11 12 13 14 15 16 17 18 19 20 21 22 23 24 25 26 27 28 29 30 31
000
FTUS44 KMOB 030500
TAFBFM
TAF
KBFM 030524Z 0306/0406 VRB03KT P6SM VCSH FEW025 BKN150
     FM031500 04006KT P6SM VCTS SCT030CB BKN200
     FM031800 18006KT P6SM VCTS SCT030CB BKN200 PROB30 0318/0324 5SM
      TSRA BKN030CB=

USA.gov is the U.S. government's official web portal to all federal, state and local government web resources and services.